createdAt,value
2019-04-11T03:26:49.709Z,45.93
2019-04-11T03:29:19.895Z,45.27
2019-04-11T03:32:33.655Z,44.60
2019-04-11T03:37:19.326Z,44.80
2019-04-11T03:39:41.198Z,45.27
2019-04-11T03:42:07.962Z,45.90
2019-04-11T03:44:25.484Z,45.70
2019-04-11T03:47:08.319Z,45.57
2019-04-11T03:49:32.816Z,45.60
2019-04-11T03:51:53.042Z,44.90
2019-04-11T03:54:23.106Z,46.53
2019-04-11T03:56:53.375Z,43.73
2019-04-11T03:59:23.706Z,44.33
2019-04-11T04:01:54.355Z,46.23
2019-04-11T04:04:23.908Z,46.10
2019-04-11T04:06:55.058Z,45.10
2019-04-11T04:09:24.763Z,44.73
2019-04-11T04:11:56.635Z,45.60
2019-04-11T04:14:49.413Z,45.10
2019-04-11T04:17:35.951Z,45.73
2019-04-11T04:20:29.674Z,45.77
2019-04-11T04:23:20.875Z,46.70
2019-04-11T04:25:51.507Z,45.63
2019-04-11T04:28:21.474Z,46.10
2019-04-11T04:30:51.715Z,46.63
2019-04-11T04:33:22.816Z,44.67
2019-04-11T04:35:51.779Z,45.90
2019-04-11T04:38:23.369Z,45.37
2019-04-11T04:41:07.678Z,47.43
2019-04-11T04:43:22.782Z,46.40
2019-04-11T04:46:08.855Z,45.33
2019-04-11T04:48:24.760Z,46.00
2019-04-11T04:50:54.171Z,47.20
2019-04-11T04:53:25.362Z,46.43
2019-04-11T04:55:54.340Z,46.77
2019-04-11T04:58:24.858Z,44.67
2019-04-11T05:00:54.317Z,47.70
2019-04-11T05:03:24.542Z,46.90
2019-04-11T05:05:55.249Z,47.90
2019-04-11T05:08:25.012Z,47.83
2019-04-11T05:10:55.645Z,45.33
2019-04-11T05:13:24.558Z,47.43
2019-04-11T05:16:07.184Z,47.47
2019-04-11T05:18:23.790Z,46.83
2019-04-11T05:20:52.773Z,45.37
2019-04-11T05:23:21.486Z,48.27
2019-04-11T05:25:50.892Z,46.77
2019-04-11T05:28:19.648Z,46.50
2019-04-11T05:30:49.087Z,46.33
2019-04-11T05:33:18.039Z,46.27
2019-04-11T05:35:46.670Z,44.83
2019-04-11T05:38:15.432Z,45.37
2019-04-11T05:40:44.054Z,45.33
2019-04-11T05:43:13.561Z,48.27
2019-04-11T05:45:42.272Z,47.40
2019-04-11T05:48:17.800Z,45.73
2019-04-11T05:50:50.404Z,47.00
2019-04-11T05:53:18.930Z,47.63
2019-04-11T05:55:48.082Z,46.90
2019-04-11T05:58:17.685Z,47.70
2019-04-11T06:00:53.494Z,44.23
2019-04-11T06:03:22.373Z,46.87
2019-04-11T06:06:10.825Z,47.30
2019-04-11T06:08:40.268Z,48.00
2019-04-11T06:11:28.506Z,46.20
2019-04-11T06:14:09.285Z,47.10
2019-04-11T06:16:46.170Z,46.73
2019-04-11T06:19:18.619Z,48.00
2019-04-11T06:21:50.497Z,47.13
2019-04-11T06:24:36.306Z,45.03
2019-04-11T06:27:24.216Z,45.93
2019-04-11T06:30:21.256Z,44.63
2019-04-11T06:33:10.125Z,45.57
2019-04-11T06:35:56.712Z,44.87
2019-04-11T06:38:35.440Z,45.87
2019-04-11T06:41:10.344Z,46.20
2019-04-11T06:43:44.925Z,43.60
2019-04-11T06:46:47.603Z,43.90
2019-04-11T06:49:15.553Z,44.00
2019-04-11T06:51:48.392Z,43.53
2019-04-11T06:54:41.964Z,44.40
2019-04-11T06:57:15.971Z,43.83
2019-04-11T06:59:45.872Z,43.13
2019-04-11T07:02:19.229Z,42.87
2019-04-11T07:04:53.950Z,44.37
2019-04-11T07:07:26.872Z,43.73
2019-04-11T07:10:06.065Z,42.63
2019-04-11T07:12:41.110Z,43.93
2019-04-11T07:15:27.656Z,44.17
2019-04-11T07:18:14.130Z,44.57
2019-04-11T07:20:46.676Z,45.10
2019-04-11T07:23:33.015Z,44.00
2019-04-11T07:26:19.207Z,43.43
2019-04-11T07:29:09.884Z,46.13
2019-04-11T07:31:46.365Z,45.03
2019-04-11T07:34:39.131Z,44.40
2019-04-11T07:37:38.851Z,44.77
2019-04-11T07:40:27.772Z,43.63
2019-04-11T07:43:13.853Z,44.20
2019-04-11T07:46:00.382Z,45.80
2019-04-11T07:48:35.951Z,45.40
2019-04-11T07:51:42.841Z,45.50
2019-04-11T07:54:20.291Z,46.10
2019-04-11T07:57:08.359Z,45.83
2019-04-11T08:00:05.989Z,46.67
2019-04-11T08:02:53.225Z,46.37
2019-04-11T08:05:40.857Z,46.03
2019-04-11T08:08:34.594Z,43.57
2019-04-11T08:11:28.553Z,44.13
2019-04-11T08:14:08.428Z,45.47
2019-04-11T08:17:11.473Z,44.60
2019-04-11T08:19:57.817Z,44.97
2019-04-11T08:22:35.041Z,43.67
2019-04-11T08:25:23.208Z,44.80
2019-04-11T08:28:01.357Z,45.27
2019-04-11T08:30:35.016Z,45.27
2019-04-11T08:33:04.554Z,44.00
2019-04-11T08:35:53.412Z,43.67
2019-04-11T08:38:26.696Z,42.87
2019-04-11T08:41:29.510Z,43.67
2019-04-11T08:43:59.397Z,41.67
2019-04-11T08:46:35.116Z,43.40
2019-04-11T08:49:06.192Z,42.47
2019-04-11T08:51:35.700Z,43.57
2019-04-11T08:54:37.427Z,42.83
2019-04-11T08:57:07.468Z,42.63
2019-04-11T08:59:58.260Z,40.93
2019-04-11T09:02:35.238Z,41.53
2019-04-11T09:05:31.283Z,41.63
2019-04-11T09:08:20.310Z,41.07
2019-04-11T09:11:08.645Z,40.37
2019-04-11T09:13:55.674Z,42.00
2019-04-11T09:16:52.102Z,39.93
2019-04-11T09:19:27.366Z,39.37
2019-04-11T09:22:13.402Z,40.00
2019-04-11T09:25:10.960Z,40.43
2019-04-11T09:27:57.603Z,38.67
2019-04-11T09:30:39.389Z,38.90
2019-04-11T09:33:27.089Z,37.77
2019-04-11T09:35:56.037Z,37.93
2019-04-11T09:38:24.928Z,38.60
2019-04-11T09:41:00.784Z,39.73
2019-04-11T09:43:31.796Z,37.90
2019-04-11T09:46:22.454Z,38.40
2019-04-11T09:49:00.126Z,38.33
2019-04-11T09:51:50.540Z,38.67
2019-04-11T09:54:50.651Z,38.93
2019-04-11T09:57:32.752Z,37.70
2019-04-11T10:00:26.808Z,36.73
2019-04-11T10:03:17.994Z,39.03
2019-04-11T10:06:12.749Z,38.57
2019-04-11T10:08:47.366Z,38.73
2019-04-11T10:11:53.168Z,37.60
2019-04-11T10:14:23.434Z,38.57
2019-04-11T10:17:10.688Z,38.77
2019-04-11T10:19:51.975Z,38.10
2019-04-11T10:22:48.643Z,37.13
2019-04-11T10:25:32.831Z,38.87
2019-04-11T10:28:29.678Z,37.73
2019-04-11T10:31:06.579Z,37.40
2019-04-11T10:33:57.448Z,37.43
2019-04-11T10:36:39.042Z,39.00
2019-04-11T10:39:27.023Z,37.93
2019-04-11T10:42:00.028Z,36.70
2019-04-11T10:44:35.940Z,38.70
2019-04-11T10:47:09.971Z,37.27
2019-04-11T10:50:00.917Z,37.97
2019-04-11T10:52:34.148Z,38.53
2019-04-11T10:55:15.612Z,38.17
2019-04-11T10:57:46.912Z,38.40
2019-04-11T11:00:23.408Z,36.83
2019-04-11T11:03:10.196Z,37.23
2019-04-11T11:05:40.983Z,35.70
2019-04-11T11:08:17.345Z,38.63
2019-04-11T11:10:46.233Z,36.50
2019-04-11T11:13:32.514Z,34.40
2019-04-11T11:16:02.261Z,37.27
2019-04-11T11:19:24.522Z,36.40
2019-04-11T11:21:33.809Z,36.10
2019-04-11T11:24:19.778Z,35.37
2019-04-11T11:26:52.093Z,35.17
2019-04-11T11:29:45.335Z,36.57
2019-04-11T11:32:31.588Z,35.47
2019-04-11T11:35:22.449Z,35.57
2019-04-11T11:37:55.539Z,36.13
2019-04-11T11:40:49.984Z,36.60
2019-04-11T11:43:30.791Z,35.47
2019-04-11T11:46:17.812Z,34.93
2019-04-11T11:49:42.043Z,35.70
2019-04-11T11:52:13.107Z,34.90
2019-04-11T11:54:46.088Z,35.73
2019-04-11T11:57:35.085Z,37.13
2019-04-11T12:00:25.227Z,34.90
2019-04-11T12:03:13.101Z,34.30
2019-04-11T12:05:49.096Z,34.30
2019-04-11T12:08:39.273Z,35.70
2019-04-11T12:11:10.815Z,34.87
2019-04-11T12:14:02.126Z,33.67
2019-04-11T12:16:43.947Z,33.00
2019-04-11T12:19:21.421Z,32.50
2019-04-11T12:21:49.658Z,33.73
2019-04-11T12:24:38.710Z,33.87
2019-04-11T12:27:24.834Z,33.90
2019-04-11T12:30:23.940Z,34.23
2019-04-11T12:33:08.921Z,33.40
2019-04-11T12:35:50.801Z,34.20
2019-04-11T12:38:29.251Z,34.70
2019-04-11T12:41:23.063Z,34.70
2019-04-11T12:44:29.450Z,32.40
2019-04-11T12:47:23.927Z,32.50
2019-04-11T12:50:29.923Z,32.97
2019-04-11T12:53:06.409Z,31.93
2019-04-11T12:55:45.075Z,33.20
2019-04-11T12:58:25.283Z,32.10
2019-04-11T13:01:25.053Z,33.73
2019-04-11T13:04:11.147Z,32.47
2019-04-11T13:06:57.119Z,32.87
2019-04-11T13:09:50.882Z,33.97
2019-04-11T13:12:26.805Z,33.37
2019-04-11T13:15:26.777Z,33.70
2019-04-11T13:18:13.151Z,31.43
2019-04-11T13:21:06.792Z,31.53
2019-04-11T13:23:41.179Z,31.63
2019-04-11T13:26:40.741Z,31.07
2019-04-11T13:29:18.969Z,32.33
2019-04-11T13:32:24.509Z,33.73
2019-04-11T13:34:55.708Z,32.90
2019-04-11T13:37:42.060Z,33.83
2019-04-11T13:40:42.610Z,34.63
2019-04-11T13:43:28.765Z,34.50
2019-04-11T13:46:19.391Z,35.73
2019-04-11T13:49:05.586Z,34.10
2019-04-11T13:52:02.111Z,35.20
2019-04-11T13:54:55.553Z,34.73
2019-04-11T13:57:54.854Z,34.40
2019-04-11T14:01:00.486Z,35.00
2019-04-11T14:03:48.078Z,35.07
2019-04-11T14:06:24.409Z,36.47
2019-04-11T14:09:12.098Z,35.27
2019-04-11T14:11:59.513Z,37.03
2019-04-11T14:14:38.844Z,35.00
2019-04-11T14:17:24.746Z,36.30
2019-04-11T14:20:12.357Z,34.97
2019-04-11T14:23:14.797Z,35.10
2019-04-11T14:26:02.529Z,34.80
2019-04-11T14:28:40.074Z,34.33
2019-04-11T14:31:36.533Z,35.33
2019-04-11T14:34:21.966Z,36.07
2019-04-11T14:36:59.438Z,34.77
2019-04-11T14:39:30.135Z,34.43
2019-04-11T14:42:16.459Z,35.93
2019-04-11T14:44:45.132Z,36.30
2019-04-11T14:47:47.936Z,36.00
2019-04-11T14:50:18.648Z,35.57
2019-04-11T14:53:21.416Z,34.60
2019-04-11T14:55:53.608Z,35.47
2019-04-11T14:58:38.616Z,35.00
2019-04-11T15:01:10.982Z,35.10
2019-04-11T15:03:57.310Z,35.33
2019-04-11T15:06:39.524Z,35.80
2019-04-11T15:09:25.167Z,35.30
2019-04-11T15:12:11.836Z,35.67
2019-04-11T15:15:14.413Z,36.00
2019-04-11T15:17:43.100Z,36.53
2019-04-11T15:20:22.885Z,34.87
2019-04-11T15:23:13.581Z,34.70
2019-04-11T15:26:08.197Z,37.03
2019-04-11T15:28:52.490Z,35.37
2019-04-11T15:31:39.761Z,34.67
2019-04-11T15:34:30.600Z,33.80
2019-04-11T15:37:12.488Z,33.73
2019-04-11T15:40:00.146Z,34.30
2019-04-11T15:42:40.477Z,33.20
2019-04-11T15:45:22.428Z,34.20
2019-04-11T15:48:06.350Z,33.87
2019-04-11T15:50:52.661Z,33.00
2019-04-11T15:53:27.072Z,34.13
2019-04-11T15:58:34.896Z,33.57
2019-04-11T16:01:25.571Z,33.07
2019-04-11T16:03:58.866Z,32.90
2019-04-11T16:06:43.143Z,32.07
2019-04-11T16:09:16.620Z,32.53
2019-04-11T16:12:19.448Z,33.30
2019-04-11T16:14:48.546Z,31.60
2019-04-11T16:17:36.160Z,31.73
2019-04-11T16:20:11.547Z,32.20
2019-04-11T16:23:11.001Z,32.93
2019-04-11T16:25:41.020Z,32.27
2019-04-11T16:28:26.925Z,31.57
2019-04-11T16:30:57.767Z,32.50
2019-04-11T16:33:46.298Z,31.27
2019-04-11T16:36:27.263Z,33.63
2019-04-11T16:39:19.844Z,33.40
2019-04-11T16:41:57.191Z,31.97
2019-04-11T16:44:47.647Z,32.63
2019-04-11T16:47:29.139Z,33.43
2019-04-11T16:49:57.769Z,32.37
2019-04-11T16:52:26.355Z,33.47
2019-04-11T16:54:55.245Z,34.93
2019-04-11T16:57:23.893Z,33.43
2019-04-11T16:59:52.849Z,33.57
2019-04-11T17:02:23.874Z,33.40
2019-04-11T17:04:55.619Z,32.87
2019-04-11T17:07:42.795Z,34.20
2019-04-11T17:10:11.603Z,31.93
2019-04-11T17:12:40.291Z,31.87
2019-04-11T17:15:09.045Z,33.03
2019-04-11T17:17:37.690Z,32.27
2019-04-11T17:20:06.785Z,32.23
2019-04-11T17:22:35.467Z,32.10
2019-04-11T17:25:04.488Z,33.10
2019-04-11T17:27:33.119Z,33.27
2019-04-11T17:30:01.941Z,32.37
2019-04-11T17:32:30.553Z,31.43
2019-04-11T17:35:01.357Z,34.47
2019-04-11T17:37:30.909Z,33.47
2019-04-11T17:39:59.907Z,33.40
2019-04-11T17:42:28.553Z,33.23
2019-04-11T17:44:57.292Z,32.27
2019-04-11T17:47:27.069Z,33.50
2019-04-11T17:49:56.161Z,32.70
2019-04-11T17:52:24.919Z,33.77
2019-04-11T17:54:54.283Z,34.23
2019-04-11T17:57:26.626Z,32.47
2019-04-11T17:59:53.757Z,32.20
2019-04-11T18:02:22.361Z,34.83
2019-04-11T18:04:51.014Z,35.17
2019-04-11T18:07:19.627Z,34.33
2019-04-11T18:09:48.208Z,33.23
2019-04-11T18:12:16.893Z,34.83
2019-04-11T18:14:45.474Z,35.07
2019-04-11T18:17:16.392Z,34.20
2019-04-11T18:19:44.381Z,35.37
2019-04-11T18:22:13.713Z,33.97
2019-04-11T18:24:44.722Z,36.27
2019-04-11T18:27:13.356Z,34.60
2019-04-11T18:29:42.264Z,35.33
2019-04-11T18:32:10.894Z,34.97
2019-04-11T18:34:39.754Z,35.63
2019-04-11T18:37:08.357Z,35.27
2019-04-11T18:39:37.265Z,33.47
2019-04-11T18:42:06.083Z,35.97
2019-04-11T18:44:34.669Z,35.17
2019-04-11T18:47:03.280Z,37.27
2019-04-11T18:49:31.871Z,35.03
2019-04-11T18:52:00.475Z,35.27
2019-04-11T18:54:29.109Z,35.30
2019-04-11T18:56:57.760Z,36.17
2019-04-11T18:59:26.334Z,35.63
2019-04-11T19:01:54.951Z,36.53
2019-04-11T19:04:32.246Z,37.73
2019-04-11T19:06:53.877Z,36.53
2019-04-11T19:09:22.628Z,35.60
2019-04-11T19:11:51.538Z,36.63
2019-04-11T19:14:20.302Z,36.00
2019-04-11T19:16:48.949Z,37.27
2019-04-11T19:19:18.506Z,38.47
2019-04-11T19:21:50.831Z,37.93
2019-04-11T19:24:18.310Z,37.90
2019-04-11T19:26:46.996Z,37.53
2019-04-11T19:29:15.766Z,37.10
2019-04-11T19:31:44.389Z,38.13
2019-04-11T19:34:12.984Z,37.73
2019-04-11T19:36:42.404Z,37.37
2019-04-11T19:39:13.894Z,37.63
2019-04-11T19:41:42.024Z,38.37
2019-04-11T19:44:10.669Z,37.37
2019-04-11T19:46:40.937Z,38.43
2019-04-11T19:49:09.657Z,38.00
2019-04-11T19:51:38.291Z,37.33
2019-04-11T19:54:07.704Z,37.00
2019-04-11T19:56:41.573Z,37.60
2019-04-11T19:59:10.260Z,38.03
2019-04-11T20:01:38.869Z,37.63
2019-04-11T20:04:07.461Z,37.37
2019-04-11T20:06:36.128Z,38.60
2019-04-11T20:09:06.442Z,37.47
2019-04-11T20:11:35.042Z,38.80
2019-04-11T20:14:03.644Z,38.70
2019-04-11T20:16:41.131Z,37.40
2019-04-11T20:19:02.528Z,37.67
2019-04-11T20:21:31.285Z,37.83
2019-04-11T20:24:00.060Z,38.20
2019-04-11T20:26:28.923Z,38.33
2019-04-11T20:28:57.626Z,38.20
2019-04-11T20:31:26.277Z,37.83
2019-04-11T20:33:54.858Z,37.27
2019-04-11T20:36:32.937Z,38.40
2019-04-11T20:38:54.020Z,39.53
2019-04-11T20:41:23.250Z,39.83
2019-04-11T20:43:55.901Z,40.67
2019-04-11T20:46:22.738Z,37.60
2019-04-11T20:48:51.338Z,40.33
2019-04-11T20:51:20.194Z,38.07
2019-04-11T20:53:48.805Z,39.77
2019-04-11T20:56:23.950Z,39.17
2019-04-11T20:58:47.729Z,39.53
2019-04-11T21:01:16.327Z,40.23
2019-04-11T21:03:45.102Z,39.40
2019-04-11T21:06:13.693Z,38.20
2019-04-11T21:08:42.298Z,38.93
2019-04-11T21:11:10.951Z,39.53
2019-04-11T21:13:39.538Z,38.50
2019-04-11T21:16:08.387Z,39.73
2019-04-11T21:18:37.011Z,40.93
2019-04-11T21:21:05.758Z,39.43
2019-04-11T21:23:34.353Z,40.37
2019-04-11T21:26:03.227Z,39.50
2019-04-11T21:28:31.834Z,39.67
2019-04-11T21:31:00.826Z,38.87
2019-04-11T21:33:29.504Z,37.90
2019-04-11T21:35:58.174Z,40.07
2019-04-11T21:38:28.074Z,40.80
2019-04-11T21:40:57.209Z,40.30
2019-04-11T21:43:25.813Z,39.30
2019-04-11T21:45:54.413Z,38.97
2019-04-11T21:48:23.028Z,39.40
2019-04-11T21:50:51.606Z,40.60
2019-04-11T21:53:21.991Z,40.10
2019-04-11T21:55:50.969Z,39.60
2019-04-11T21:58:20.352Z,41.40
2019-04-11T22:00:51.801Z,38.97
2019-04-11T22:03:23.995Z,40.83
2019-04-11T22:05:52.053Z,40.67
2019-04-11T22:08:20.653Z,40.07
2019-04-11T22:10:49.257Z,42.60
2019-04-11T22:13:17.840Z,38.90
2019-04-11T22:15:46.435Z,40.17
2019-04-11T22:18:16.691Z,40.20
2019-04-11T22:20:45.920Z,39.80
2019-04-11T22:23:14.614Z,40.80
2019-04-11T22:25:43.238Z,42.07
2019-04-11T22:28:11.890Z,41.17
2019-04-11T22:30:40.517Z,42.17
2019-04-11T22:33:19.609Z,39.80
2019-04-11T22:35:48.335Z,41.60
2019-04-11T22:38:16.926Z,41.73
2019-04-11T22:40:45.831Z,41.40
2019-04-11T22:43:24.042Z,42.60
2019-04-11T22:45:44.786Z,41.03
2019-04-11T22:48:13.453Z,41.13
2019-04-11T22:50:42.096Z,42.63
2019-04-11T22:53:13.064Z,41.60
2019-04-11T22:55:41.838Z,41.47
2019-04-11T22:58:13.961Z,40.80
2019-04-11T23:00:45.153Z,41.63
2019-04-11T23:03:36.278Z,42.13
2019-04-11T23:06:04.877Z,42.00
2019-04-11T23:08:33.871Z,42.20
2019-04-11T23:11:02.537Z,42.17
2019-04-11T23:13:31.129Z,42.20
2019-04-11T23:15:59.727Z,40.23
2019-04-11T23:18:28.443Z,40.70
2019-04-11T23:20:57.032Z,42.20
2019-04-11T23:23:25.636Z,41.83
2019-04-11T23:25:54.263Z,41.80
2019-04-11T23:28:22.871Z,41.40
2019-04-11T23:30:51.660Z,41.80
2019-04-11T23:33:21.468Z,42.87
2019-04-11T23:35:51.245Z,41.50
2019-04-11T23:38:23.571Z,41.73
2019-04-11T23:40:51.217Z,43.43
2019-04-11T23:43:20.720Z,40.93
2019-04-11T23:45:51.205Z,41.90
2019-04-11T23:48:23.735Z,40.53
2019-04-11T23:50:49.941Z,40.57
2019-04-11T23:53:18.514Z,41.53
2019-04-11T23:55:47.285Z,40.60
2019-04-11T23:58:15.936Z,39.80
